createdAt,value
2022-10-09T00:02:17.786Z,3.5
2022-10-09T00:07:18.700Z,3.0
2022-10-09T00:09:49.298Z,2.9
2022-10-09T00:12:29.918Z,2.7
2022-10-09T00:15:01.020Z,2.6
2022-10-09T00:17:31.607Z,2.4
2022-10-09T00:20:02.220Z,2.3
2022-10-09T00:22:32.816Z,2.2
2022-10-09T00:25:13.449Z,2.1
2022-10-09T00:27:44.050Z,2.0
2022-10-09T00:30:14.802Z,1.9
2022-10-09T00:32:45.508Z,1.9
2022-10-09T00:35:16.212Z,1.8
2022-10-09T00:37:46.837Z,1.8
2022-10-09T00:40:27.445Z,1.7
2022-10-09T00:42:58.031Z,1.8
2022-10-09T00:47:58.770Z,1.8
2022-10-09T00:50:29.358Z,1.8
2022-10-09T00:52:59.960Z,1.7
2022-10-09T00:58:10.684Z,1.7
2022-10-09T01:00:41.289Z,1.7
2022-10-09T01:03:11.955Z,1.5
2022-10-09T01:05:42.546Z,1.5
2022-10-09T01:08:13.160Z,1.5
2022-10-09T01:10:53.760Z,1.5
2022-10-09T01:13:24.357Z,1.5
2022-10-09T01:15:55.005Z,1.5
2022-10-09T01:18:29.486Z,1.7
2022-10-09T01:21:00.088Z,1.6
2022-10-09T01:23:30.693Z,1.5
2022-10-09T01:28:41.457Z,1.6
2022-10-09T01:31:12.085Z,1.5
2022-10-09T01:33:42.824Z,1.6
2022-10-09T01:36:13.417Z,1.5
2022-10-09T01:38:54.034Z,1.7
2022-10-09T01:41:24.635Z,1.9
2022-10-09T01:43:55.235Z,1.9
2022-10-09T01:46:25.853Z,1.8
2022-10-09T01:48:56.598Z,1.7
2022-10-09T01:51:27.271Z,1.6
2022-10-09T01:54:07.885Z,1.4
2022-10-09T01:56:38.461Z,1.2
2022-10-09T01:59:12.378Z,1.1
2022-10-09T02:01:45.493Z,0.9
2022-10-09T02:04:16.494Z,0.8
2022-10-09T02:09:27.259Z,0.7
2022-10-09T02:11:57.846Z,0.7
2022-10-09T02:14:28.459Z,0.7
2022-10-09T02:16:59.045Z,0.7
2022-10-09T02:19:29.628Z,0.7
2022-10-09T02:22:00.219Z,0.7
2022-10-09T02:24:40.819Z,0.7
2022-10-09T02:27:11.438Z,0.6
2022-10-09T02:29:42.064Z,0.5
2022-10-09T02:32:12.628Z,0.5
2022-10-09T02:34:43.226Z,0.4
2022-10-09T02:37:23.832Z,0.3
2022-10-09T02:39:54.465Z,0.3
2022-10-09T02:42:20.854Z,0.3
2022-10-09T02:44:51.457Z,0.3
2022-10-09T02:49:52.159Z,0.3
2022-10-09T02:52:32.757Z,0.2
2022-10-09T02:55:03.345Z,0.2
2022-10-09T02:57:33.917Z,0.1
2022-10-09T03:00:04.536Z,0.1
2022-10-09T03:02:35.240Z,0.2
2022-10-09T03:05:06.154Z,0.1
2022-10-09T03:07:47.462Z,0.1
2022-10-09T03:10:18.046Z,0.0
2022-10-09T03:12:48.816Z,-0.1
2022-10-09T03:15:19.612Z,-0.2
2022-10-09T03:17:50.457Z,-0.3
2022-10-09T03:20:21.054Z,-0.3
2022-10-09T03:23:01.644Z,-0.2
2022-10-09T03:25:32.260Z,-0.1
2022-10-09T03:30:43.003Z,0.0
2022-10-09T03:33:13.644Z,0.0
2022-10-09T03:35:44.225Z,-0.1
2022-10-09T03:38:24.850Z,-0.2
2022-10-09T03:40:55.434Z,-0.3
2022-10-09T03:43:26.044Z,-0.3
2022-10-09T03:46:00.394Z,-0.2
2022-10-09T03:48:21.768Z,-0.2
2022-10-09T03:51:02.387Z,-0.2
2022-10-09T03:53:32.989Z,-0.5
2022-10-09T03:56:03.561Z,-0.5
2022-10-09T03:58:34.137Z,-0.6
2022-10-09T04:01:04.802Z,-0.4
2022-10-09T04:03:35.609Z,-0.4
2022-10-09T04:06:16.207Z,-0.5
2022-10-09T04:11:17.783Z,-0.6
2022-10-09T04:13:48.403Z,-0.7
2022-10-09T04:16:19.061Z,-0.6
2022-10-09T04:18:49.808Z,-0.7
2022-10-09T04:21:30.376Z,-0.9
2022-10-09T04:24:00.953Z,-0.9
2022-10-09T04:26:31.527Z,-1.0
2022-10-09T04:29:02.147Z,-0.9
2022-10-09T04:31:32.743Z,-0.9
2022-10-09T04:34:03.476Z,-0.6
2022-10-09T04:36:44.052Z,-0.6
2022-10-09T04:39:14.643Z,-0.5
2022-10-09T04:41:45.241Z,-0.3
2022-10-09T04:44:25.845Z,0.1
2022-10-09T04:46:56.427Z,0.5
2022-10-09T04:52:01.814Z,2.3
2022-10-09T04:54:32.410Z,2.5
2022-10-09T04:57:03.014Z,2.6
2022-10-09T04:59:33.596Z,1.9
2022-10-09T05:02:04.190Z,1.0
2022-10-09T05:04:34.892Z,0.3
2022-10-09T05:07:15.483Z,0.1
2022-10-09T05:09:46.084Z,0.2
2022-10-09T05:12:16.689Z,0.3
2022-10-09T05:14:47.309Z,0.3
2022-10-09T05:17:20.746Z,0.3
2022-10-09T05:20:03.532Z,0.2
2022-10-09T05:22:34.104Z,0.3
2022-10-09T05:25:04.718Z,0.1
2022-10-09T05:27:35.311Z,-0.3
2022-10-09T05:32:36.072Z,-0.2
2022-10-09T05:35:17.030Z,0.0
2022-10-09T05:37:47.630Z,0.7
2022-10-09T05:40:18.250Z,1.2
2022-10-09T05:42:50.125Z,1.1
2022-10-09T05:45:20.978Z,1.3
2022-10-09T05:47:51.736Z,0.8
2022-10-09T05:50:32.343Z,0.8
2022-10-09T05:53:02.924Z,0.9
2022-10-09T05:55:33.552Z,1.3
2022-10-09T05:58:04.136Z,1.9
2022-10-09T06:00:34.750Z,2.3
2022-10-09T06:03:05.381Z,2.8
2022-10-09T06:05:45.950Z,3.0
2022-10-09T06:08:16.510Z,3.3
2022-10-09T06:13:17.210Z,3.5
2022-10-09T06:15:47.869Z,3.7
2022-10-09T06:18:18.467Z,3.7
2022-10-09T06:20:59.072Z,3.9
2022-10-09T06:23:29.694Z,3.9
2022-10-09T06:26:00.291Z,3.9
2022-10-09T06:28:30.941Z,4.1
2022-10-09T06:31:01.776Z,4.1
2022-10-09T06:33:42.566Z,4.2
2022-10-09T06:36:13.128Z,4.2
2022-10-09T06:38:43.744Z,4.2
2022-10-09T06:41:14.333Z,4.2
2022-10-09T06:43:44.934Z,4.2
2022-10-09T06:46:15.549Z,4.2
2022-10-09T06:48:56.222Z,4.3
2022-10-09T06:53:56.985Z,4.3
2022-10-09T06:56:27.607Z,4.3
2022-10-09T06:58:58.203Z,4.3
2022-10-09T07:01:28.836Z,4.4
2022-10-09T07:04:09.712Z,4.5
2022-10-09T07:06:40.294Z,4.5
2022-10-09T07:09:10.880Z,4.6
2022-10-09T07:11:41.455Z,4.6
2022-10-09T07:14:12.068Z,4.6
2022-10-09T07:16:42.654Z,4.7
2022-10-09T07:19:33.243Z,4.7
2022-10-09T07:22:03.807Z,4.7
2022-10-09T07:24:27.388Z,4.8
2022-10-09T07:26:57.991Z,4.8
2022-10-09T07:29:28.597Z,4.8
2022-10-09T07:34:39.348Z,4.9
2022-10-09T07:37:09.943Z,4.9
2022-10-09T07:39:44.223Z,4.9
2022-10-09T07:42:15.495Z,4.9
2022-10-09T07:44:46.102Z,4.9
2022-10-09T07:47:26.711Z,5.1
2022-10-09T07:49:57.313Z,4.9
2022-10-09T07:52:27.904Z,5.1
2022-10-09T07:54:58.796Z,5.1
2022-10-09T07:57:29.374Z,5.1
2022-10-09T07:59:59.987Z,5.2
2022-10-09T08:02:40.649Z,5.2
2022-10-09T08:05:11.829Z,5.3
2022-10-09T08:07:42.388Z,5.5
2022-10-09T08:10:13.003Z,5.5
2022-10-09T08:15:13.781Z,5.6
2022-10-09T08:17:54.452Z,5.6
2022-10-09T08:20:25.049Z,5.7
2022-10-09T08:22:55.631Z,5.8
2022-10-09T08:25:26.269Z,5.8
2022-10-09T08:27:56.905Z,5.9
2022-10-09T08:30:37.591Z,6.0
2022-10-09T08:33:08.340Z,6.0
2022-10-09T08:35:38.922Z,6.1
2022-10-09T08:38:17.793Z,6.1
2022-10-09T08:40:46.925Z,6.2
2022-10-09T08:43:18.731Z,6.3
2022-10-09T08:45:59.361Z,6.3
2022-10-09T08:48:21.191Z,6.3
2022-10-09T08:50:51.796Z,6.4
2022-10-09T08:55:52.555Z,6.6
2022-10-09T08:58:33.144Z,6.6
2022-10-09T09:01:13.757Z,6.6
2022-10-09T09:03:44.528Z,6.7
2022-10-09T09:06:15.125Z,6.8
2022-10-09T09:08:45.731Z,7.0
2022-10-09T09:13:46.485Z,7.0
2022-10-09T09:16:27.174Z,7.0
2022-10-09T09:18:57.816Z,7.1
2022-10-09T09:21:28.415Z,7.2
2022-10-09T09:23:59.018Z,7.2
2022-10-09T09:26:29.606Z,7.2
2022-10-09T09:29:10.217Z,7.3
2022-10-09T09:31:40.847Z,7.4
2022-10-09T09:36:41.633Z,7.5
2022-10-09T09:39:54.484Z,7.4
2022-10-09T09:41:37.820Z,7.5
2022-10-09T09:44:18.435Z,7.6
2022-10-09T09:46:49.094Z,7.6
2022-10-09T09:49:19.883Z,7.7
2022-10-09T09:51:50.489Z,7.7
2022-10-09T09:54:21.091Z,7.6
2022-10-09T09:57:11.466Z,7.7
2022-10-09T09:59:32.926Z,7.8
2022-10-09T10:02:03.694Z,7.9
2022-10-09T10:04:34.621Z,8.0
2022-10-09T10:07:05.212Z,8.2
2022-10-09T10:09:35.803Z,8.2
2022-10-09T10:12:06.424Z,8.2
2022-10-09T10:17:27.201Z,8.4
2022-10-09T10:19:57.799Z,8.4
2022-10-09T10:22:28.574Z,8.5
2022-10-09T10:24:59.520Z,8.6
2022-10-09T10:27:23.131Z,8.8
2022-10-09T10:30:03.754Z,8.9
2022-10-09T10:32:34.337Z,9.0
2022-10-09T10:35:04.948Z,9.2
2022-10-09T10:37:35.548Z,9.3
2022-10-09T10:40:06.209Z,9.3
2022-10-09T10:45:16.970Z,9.5
2022-10-09T10:47:47.805Z,9.6
2022-10-09T10:50:18.540Z,9.7
2022-10-09T10:52:49.451Z,9.8
2022-10-09T10:58:00.262Z,10.1
2022-10-09T11:00:30.892Z,10.3
2022-10-09T11:03:01.716Z,10.4
2022-10-09T11:05:32.548Z,10.5
2022-10-09T11:08:03.137Z,10.8
2022-10-09T11:10:33.731Z,11.2
2022-10-09T11:13:24.369Z,11.4
2022-10-09T11:15:55.017Z,11.4
2022-10-09T11:18:25.874Z,11.5
2022-10-09T11:20:56.437Z,11.6
2022-10-09T11:23:27.013Z,11.6
2022-10-09T11:25:58.143Z,11.6
2022-10-09T11:28:38.814Z,11.6
2022-10-09T11:31:09.587Z,11.6
2022-10-09T11:33:40.523Z,11.7
2022-10-09T11:38:41.253Z,11.7
2022-10-09T11:41:11.854Z,12.0
2022-10-09T11:43:52.458Z,12.0
2022-10-09T11:46:23.053Z,12.0
2022-10-09T11:48:53.630Z,12.1
2022-10-09T11:51:24.231Z,12.1
2022-10-09T11:53:54.843Z,12.2
2022-10-09T11:56:35.450Z,12.1
2022-10-09T11:59:06.067Z,12.1
2022-10-09T12:01:36.670Z,12.0
2022-10-09T12:04:07.360Z,12.0
2022-10-09T12:06:34.181Z,12.1
2022-10-09T12:09:04.779Z,12.0
2022-10-09T12:11:45.372Z,11.9
2022-10-09T12:14:19.558Z,12.0
2022-10-09T12:19:20.921Z,12.0
2022-10-09T12:21:51.480Z,12.0
2022-10-09T12:24:22.065Z,12.0
2022-10-09T12:27:02.649Z,12.0
2022-10-09T12:29:33.249Z,12.0
2022-10-09T12:32:03.838Z,12.0
2022-10-09T12:34:34.423Z,12.0
2022-10-09T12:37:05.076Z,12.0
2022-10-09T12:39:35.766Z,12.0
2022-10-09T12:42:16.438Z,12.0
2022-10-09T12:44:47.664Z,12.0
2022-10-09T12:47:18.251Z,12.0
2022-10-09T12:49:48.858Z,11.8
2022-10-09T12:52:19.463Z,11.8
2022-10-09T12:54:50.060Z,11.8
2022-10-09T13:00:00.819Z,11.9
2022-10-09T13:02:31.606Z,11.9
2022-10-09T13:05:02.938Z,12.0
2022-10-09T13:07:33.531Z,12.0
2022-10-09T13:10:18.829Z,12.0
2022-10-09T13:12:49.637Z,12.0
2022-10-09T13:15:20.360Z,11.9
2022-10-09T13:17:51.313Z,11.8
2022-10-09T13:20:22.164Z,11.8
2022-10-09T13:22:52.993Z,11.8
2022-10-09T13:25:33.650Z,11.8
2022-10-09T13:28:04.264Z,11.9
2022-10-09T13:30:35.111Z,11.9
2022-10-09T13:33:05.860Z,11.9
2022-10-09T13:35:36.462Z,11.9
2022-10-09T13:40:47.207Z,12.0
2022-10-09T13:43:17.805Z,12.1
2022-10-09T13:45:48.477Z,12.2
2022-10-09T13:48:19.332Z,12.1
2022-10-09T13:50:49.912Z,12.1
2022-10-09T13:53:30.544Z,12.2
2022-10-09T13:56:01.374Z,12.2
2022-10-09T13:58:32.018Z,12.2
2022-10-09T14:01:02.856Z,12.3
2022-10-09T14:03:33.725Z,12.3
2022-10-09T14:06:04.330Z,12.3
2022-10-09T14:08:44.994Z,12.2
2022-10-09T14:11:15.594Z,12.1
2022-10-09T14:13:46.219Z,12.0
2022-10-09T14:16:16.815Z,12.0
2022-10-09T14:21:17.565Z,11.9
2022-10-09T14:23:58.166Z,11.9
2022-10-09T14:26:28.769Z,11.9
2022-10-09T14:29:02.066Z,11.9
2022-10-09T14:31:32.665Z,11.9
2022-10-09T14:34:03.231Z,11.8
2022-10-09T14:36:33.785Z,11.8
2022-10-09T14:39:14.369Z,11.8
2022-10-09T14:41:44.987Z,11.6
2022-10-09T14:44:15.583Z,11.7
2022-10-09T14:46:46.176Z,11.6
2022-10-09T14:49:16.783Z,11.6
2022-10-09T14:51:47.411Z,11.6
2022-10-09T14:54:28.057Z,11.5
2022-10-09T14:56:58.633Z,11.5
2022-10-09T15:01:59.398Z,11.5
2022-10-09T15:04:30.000Z,11.4
2022-10-09T15:07:10.597Z,11.4
2022-10-09T15:09:41.186Z,11.4
2022-10-09T15:12:11.768Z,11.4
2022-10-09T15:14:42.362Z,11.4
2022-10-09T15:17:12.957Z,11.3
2022-10-09T15:19:43.552Z,11.4
2022-10-09T15:22:24.132Z,11.3
2022-10-09T15:24:54.731Z,11.3
2022-10-09T15:27:25.319Z,11.2
2022-10-09T15:29:55.944Z,11.2
2022-10-09T15:32:26.522Z,11.2
2022-10-09T15:34:57.125Z,11.2
2022-10-09T15:37:37.751Z,11.1
2022-10-09T15:42:40.929Z,11.0
2022-10-09T15:45:11.958Z,11.1
2022-10-09T15:47:50.723Z,11.0
2022-10-09T15:50:11.717Z,10.9
2022-10-09T15:52:52.536Z,10.8
2022-10-09T15:55:23.194Z,10.8
2022-10-09T15:57:53.781Z,10.7
2022-10-09T16:00:24.377Z,10.7
2022-10-09T16:02:54.961Z,10.5
2022-10-09T16:05:35.585Z,10.5
2022-10-09T16:08:06.178Z,10.4
2022-10-09T16:10:36.766Z,10.4
2022-10-09T16:13:09.755Z,10.4
2022-10-09T16:15:40.387Z,10.4
2022-10-09T16:18:10.986Z,10.4
2022-10-09T16:23:21.763Z,10.3
2022-10-09T16:25:52.386Z,10.3
2022-10-09T16:28:23.030Z,10.2
2022-10-09T16:30:53.874Z,10.2
2022-10-09T16:33:24.447Z,10.1
2022-10-09T16:36:05.023Z,10.1
2022-10-09T16:38:35.600Z,10.2
2022-10-09T16:41:06.193Z,10.2
2022-10-09T16:43:36.817Z,10.2
2022-10-09T16:46:07.371Z,10.2
2022-10-09T16:48:38.063Z,10.2
2022-10-09T16:51:18.680Z,10.2
2022-10-09T16:53:49.280Z,10.1
2022-10-09T16:56:19.901Z,10.1
2022-10-09T16:58:50.499Z,10.0
2022-10-09T17:04:01.267Z,10.0
2022-10-09T17:06:31.886Z,10.0
2022-10-09T17:09:02.485Z,9.9
2022-10-09T17:11:34.490Z,9.9
2022-10-09T17:14:05.085Z,9.9
2022-10-09T17:16:35.685Z,9.9
2022-10-09T17:19:16.311Z,9.8
2022-10-09T17:21:46.896Z,9.8
2022-10-09T17:24:17.518Z,9.8
2022-10-09T17:26:48.101Z,9.7
2022-10-09T17:29:18.719Z,9.7
2022-10-09T17:31:59.323Z,9.6
2022-10-09T17:34:39.932Z,9.6
2022-10-09T17:37:10.521Z,9.6
2022-10-09T17:39:43.724Z,9.5
2022-10-09T17:44:35.506Z,9.4
2022-10-09T17:47:06.095Z,9.3
2022-10-09T17:49:46.686Z,9.3
2022-10-09T17:52:17.293Z,9.2
2022-10-09T17:54:47.897Z,9.1
2022-10-09T17:57:18.492Z,9.1
2022-10-09T17:59:49.088Z,9.1
2022-10-09T18:02:19.657Z,9.0
2022-10-09T18:05:00.252Z,9.0
2022-10-09T18:07:30.913Z,9.0
2022-10-09T18:10:02.132Z,9.0
2022-10-09T18:12:32.715Z,9.1
2022-10-09T18:15:03.290Z,9.1
2022-10-09T18:17:33.881Z,9.1
2022-10-09T18:20:14.484Z,9.1
2022-10-09T18:25:25.204Z,9.1
2022-10-09T18:27:55.800Z,9.0
2022-10-09T18:30:26.691Z,9.0
2022-10-09T18:33:07.288Z,9.0
2022-10-09T18:35:37.854Z,9.0
2022-10-09T18:38:08.443Z,8.9
2022-10-09T18:40:43.175Z,8.9
2022-10-09T18:43:05.768Z,8.9
2022-10-09T18:45:36.369Z,8.9
2022-10-09T18:48:17.030Z,8.9
2022-10-09T18:50:47.618Z,8.9
2022-10-09T18:53:18.228Z,9.0
2022-10-09T18:55:48.835Z,9.0
2022-10-09T18:58:19.421Z,9.0
2022-10-09T19:00:50.117Z,9.0
2022-10-09T19:06:05.112Z,9.1
2022-10-09T19:08:35.706Z,9.1
2022-10-09T19:11:06.396Z,9.2
2022-10-09T19:13:37.008Z,9.1
2022-10-09T19:16:07.609Z,9.1
2022-10-09T19:18:48.233Z,9.0
2022-10-09T19:21:18.786Z,9.0
2022-10-09T19:23:49.392Z,9.0
2022-10-09T19:26:19.971Z,9.0
2022-10-09T19:28:50.590Z,9.1
2022-10-09T19:31:31.199Z,9.1
2022-10-09T19:34:01.800Z,9.2
2022-10-09T19:36:32.398Z,9.1
2022-10-09T19:39:03.085Z,9.2
2022-10-09T19:41:33.668Z,9.2
2022-10-09T19:46:44.421Z,9.1
2022-10-09T19:49:15.030Z,9.1
2022-10-09T19:51:45.625Z,9.0
2022-10-09T19:54:16.219Z,9.0
2022-10-09T19:56:46.799Z,9.1
2022-10-09T19:59:17.396Z,9.0
2022-10-09T20:01:58.042Z,9.1
2022-10-09T20:04:28.631Z,9.2
2022-10-09T20:06:59.237Z,9.2
2022-10-09T20:09:33.263Z,9.2
2022-10-09T20:12:03.832Z,9.2
2022-10-09T20:14:34.458Z,9.2
2022-10-09T20:17:15.073Z,9.2
2022-10-09T20:19:45.891Z,9.2
2022-10-09T20:22:16.490Z,9.1
2022-10-09T20:27:17.248Z,9.0
2022-10-09T20:29:47.860Z,8.9
2022-10-09T20:32:28.458Z,8.8
2022-10-09T20:34:59.418Z,8.8
2022-10-09T20:37:29.987Z,8.7
2022-10-09T20:40:00.588Z,8.6
2022-10-09T20:42:31.230Z,8.5
2022-10-09T20:45:12.200Z,8.4
2022-10-09T20:47:42.776Z,8.4
2022-10-09T20:50:13.380Z,8.2
2022-10-09T20:52:43.975Z,8.2
2022-10-09T20:55:14.588Z,8.2
2022-10-09T20:57:45.173Z,8.1
2022-10-09T21:00:25.786Z,8.1
2022-10-09T21:02:56.368Z,8.1
2022-10-09T21:08:02.211Z,8.3
2022-10-09T21:10:32.810Z,8.3
2022-10-09T21:13:03.385Z,8.5
2022-10-09T21:15:44.009Z,8.6
2022-10-09T21:18:14.641Z,8.6
2022-10-09T21:20:45.214Z,8.6
2022-10-09T21:23:15.806Z,8.5
2022-10-09T21:25:46.373Z,8.5
2022-10-09T21:28:17.015Z,8.5
2022-10-09T21:30:57.762Z,8.5
2022-10-09T21:33:28.356Z,8.5
2022-10-09T21:35:58.917Z,8.4
2022-10-09T21:38:29.529Z,8.4
2022-10-09T21:41:00.123Z,8.4
2022-10-09T21:43:30.735Z,8.4
2022-10-09T21:48:41.478Z,8.2
2022-10-09T21:51:17.659Z,8.1
2022-10-09T21:53:48.270Z,8.0
2022-10-09T21:56:18.846Z,8.0
2022-10-09T21:58:59.434Z,8.0
2022-10-09T22:01:30.097Z,7.9
2022-10-09T22:04:00.828Z,7.9
2022-10-09T22:06:31.442Z,8.0
2022-10-09T22:09:02.115Z,8.0
2022-10-09T22:11:32.688Z,8.0
2022-10-09T22:14:13.321Z,8.0
2022-10-09T22:16:43.888Z,8.0
2022-10-09T22:19:14.484Z,8.1
2022-10-09T22:21:45.079Z,8.2
2022-10-09T22:24:15.655Z,8.2
2022-10-09T22:29:29.815Z,8.2
2022-10-09T22:32:00.411Z,8.2
2022-10-09T22:34:30.993Z,8.2
2022-10-09T22:37:01.546Z,8.2
2022-10-09T22:39:32.138Z,8.2
2022-10-09T22:42:02.739Z,8.2
2022-10-09T22:44:43.371Z,8.2
2022-10-09T22:47:13.941Z,8.1
2022-10-09T22:49:44.527Z,8.1
2022-10-09T22:52:15.121Z,8.0
2022-10-09T22:54:45.718Z,8.0
2022-10-09T22:57:16.310Z,8.0
2022-10-09T22:59:56.918Z,7.9
2022-10-09T23:02:27.484Z,7.9
2022-10-09T23:04:58.604Z,7.8
2022-10-09T23:09:59.367Z,7.8
2022-10-09T23:12:29.935Z,7.8
2022-10-09T23:15:10.890Z,7.8
2022-10-09T23:17:41.463Z,7.8
2022-10-09T23:20:12.061Z,7.8
2022-10-09T23:22:42.663Z,7.7
2022-10-09T23:25:13.565Z,7.7
2022-10-09T23:27:54.146Z,7.6
2022-10-09T23:30:24.842Z,7.6
2022-10-09T23:32:55.425Z,7.6
2022-10-09T23:35:26.006Z,7.6
2022-10-09T23:37:56.601Z,7.6
2022-10-09T23:40:27.188Z,7.6
2022-10-09T23:43:07.808Z,7.6
2022-10-09T23:45:38.410Z,7.5
2022-10-09T23:50:39.135Z,7.5
2022-10-09T23:53:09.715Z,7.5
2022-10-09T23:55:40.304Z,7.4
2022-10-09T23:58:21.207Z,7.4
